Zeran (malta) — 9HHJ5 — position and weather

sailwx.info

Track history (hours):
 
Tides and Currents Weather Stations Pressure Air Temp Water Temp Dewpoint Dewpoint Depression Visibility Wind Speed Wind Dir Waves Ship Positions

Zeran (malta)

Last reported at 2014-Aug-21 07:24 UTC. Time now 2014-Aug-21 08:15 UTC.
Position N 44°24' E 008°53'.

Length 148 m; beam 24 m.

Type: Cargo ship. MMSI: 249846000.

Date/timePositionNaut miles runAvg speedWind from/ knotsBaromVisibWave heightAir tempDewpointWater temp
2014-Aug-21 07:24N 44°24' E 008°53'0 0.0
2014-Aug-21 05:21N 44°24' E 008°53'0 0.0
2014-Aug-21 04:33N 44°24' E 008°53'0 0.0
2014-Aug-21 03:33N 44°24' E 008°53'0 0.0
2014-Aug-21 02:15N 44°24' E 008°53'0 0.0
2014-Aug-21 01:23N 44°24' E 008°53'0 0.0
2014-Aug-21 00:30N 44°24' E 008°53'0 0.0
2014-Aug-20 23:33N 44°24' E 008°53'0 0.0
2014-Aug-20 22:33N 44°24' E 008°53'0 0.0
2014-Aug-20 21:33N 44°24' E 008°53'0 0.0
2014-Aug-20 20:31N 44°24' E 008°53'3 3.4
2014-Aug-20 19:33N 44°23' E 008°57'1010.2
2014-Aug-20 18:33N 44°14' E 009°02'1211.8
2014-Aug-20 17:33N 44°02' E 009°07'1211.6
2014-Aug-20 16:33N 43°52' E 009°13'1211.7
2014-Aug-20 15:33N 43°40' E 009°18'1111.5
2014-Aug-20 14:33N 43°30' E 009°24'47911.4
2014-Aug-18 20:23N 36°04' E 013°13'243 4.8
2014-Aug-16 17:21N 32°22' E 015°13'0 0.0
2014-Aug-16 16:33N 32°22' E 015°13'0 0.0
2014-Aug-16 15:27N 32°22' E 015°13'1 1.1
2014-Aug-16 14:11N 32°22' E 015°15'5 8.0
2014-Aug-16 13:32N 32°27' E 015°16'5510.8
2014-Aug-16 08:26N 33°18' E 014°51'12911.3
2014-Aug-15 21:04N 35°14' E 013°44'612.1
2014-Aug-15 20:33N 35°20' E 013°40'1212.5
2014-Aug-15 19:33N 35°31' E 013°34'1312.9
2014-Aug-15 18:33N 35°42' E 013°26'1313.0
2014-Aug-15 17:33N 35°54' E 013°19'1313.0
2014-Aug-15 16:33N 36°05' E 013°12'1312.8
2014-Aug-15 15:33N 36°17' E 013°04'1812.5
2014-Aug-15 14:05N 36°33' E 012°53'712.1
2014-Aug-15 13:30N 36°39' E 012°49'1112.0
2014-Aug-15 12:33N 36°49' E 012°42'1211.9
2014-Aug-15 11:33N 36°59' E 012°34'23910.3
2014-Aug-14 12:16N 40°45' E 014°15'6 0.4
2014-Aug-13 23:13N 40°50' E 014°17'0 0.0
2014-Aug-13 21:13N 40°50' E 014°17'0 0.0
2014-Aug-13 20:31N 40°50' E 014°17'0 0.0
2014-Aug-13 19:31N 40°50' E 014°17'0 0.1
2014-Aug-13 15:20N 40°50' E 014°17'265 9.2
2014-Aug-12 10:32N 43°24' E 009°27'1111.1
2014-Aug-12 09:33N 43°35' E 009°22'1110.9
2014-Aug-12 08:33N 43°44' E 009°15'1111.0
2014-Aug-12 07:33N 43°54' E 009°08'1111.2
2014-Aug-12 06:33N 44°05' E 009°02'1111.3
2014-Aug-12 05:33N 44°15' E 008°57'9 9.2
2014-Aug-12 04:33N 44°24' E 008°53'1 0.5
2014-Aug-12 03:29N 44°24' E 008°53'0 0.0
2014-Aug-12 02:32N 44°24' E 008°53'0 0.0
2014-Aug-12 01:32N 44°24' E 008°53'0 0.0
2014-Aug-12 00:32N 44°24' E 008°53'0 0.0
2014-Aug-11 23:32N 44°24' E 008°53'0 0.0
2014-Aug-11 22:32N 44°24' E 008°53'0 0.0
2014-Aug-11 20:32N 44°24' E 008°53'0 0.0
2014-Aug-11 19:29N 44°24' E 008°53'0 0.0
2014-Aug-11 18:29N 44°24' E 008°53'0 0.0
2014-Aug-11 15:29N 44°24' E 008°53'0 0.0
2014-Aug-11 14:26N 44°24' E 008°53'0 0.0
2014-Aug-11 13:32N 44°24' E 008°53'0 0.0
2014-Aug-11 12:32N 44°24' E 008°53'0 0.0
2014-Aug-11 11:32N 44°24' E 008°53'0 0.0
2014-Aug-11 10:32N 44°24' E 008°53'0 0.0
2014-Aug-11 09:32N 44°24' E 008°53'0 0.0
2014-Aug-11 08:11N 44°24' E 008°53'0 0.0
2014-Aug-11 07:26N 44°24' E 008°53'  
Track history (hours):
 
Tides and Currents Weather Stations Pressure Air Temp Water Temp Dewpoint Dewpoint Depression Visibility Wind Speed Wind Dir Waves Ship Positions

Zeran (malta)

Last reported at 2014-Aug-21 07:24 UTC. Time now 2014-Aug-21 08:15 UTC.
Position N 44°24' E 008°53'.

Length 148 m; beam 24 m.

Type: Cargo ship. MMSI: 249846000.

Date/timePositionNaut miles runAvg speedWind from/ knotsBaromVisibWave heightAir tempDewpointWater temp
2014-Aug-21 07:24N 44°24' E 008°53'0 0.0
2014-Aug-21 05:21N 44°24' E 008°53'0 0.0
2014-Aug-21 04:33N 44°24' E 008°53'0 0.0
2014-Aug-21 03:33N 44°24' E 008°53'0 0.0
2014-Aug-21 02:15N 44°24' E 008°53'0 0.0
2014-Aug-21 01:23N 44°24' E 008°53'0 0.0
2014-Aug-21 00:30N 44°24' E 008°53'0 0.0
2014-Aug-20 23:33N 44°24' E 008°53'0 0.0
2014-Aug-20 22:33N 44°24' E 008°53'0 0.0
2014-Aug-20 21:33N 44°24' E 008°53'0 0.0
2014-Aug-20 20:31N 44°24' E 008°53'3 3.4
2014-Aug-20 19:33N 44°23' E 008°57'1010.2
2014-Aug-20 18:33N 44°14' E 009°02'1211.8
2014-Aug-20 17:33N 44°02' E 009°07'1211.6
2014-Aug-20 16:33N 43°52' E 009°13'1211.7
2014-Aug-20 15:33N 43°40' E 009°18'1111.5
2014-Aug-20 14:33N 43°30' E 009°24'47911.4
2014-Aug-18 20:23N 36°04' E 013°13'243 4.8
2014-Aug-16 17:21N 32°22' E 015°13'0 0.0
2014-Aug-16 16:33N 32°22' E 015°13'0 0.0
2014-Aug-16 15:27N 32°22' E 015°13'1 1.1
2014-Aug-16 14:11N 32°22' E 015°15'5 8.0
2014-Aug-16 13:32N 32°27' E 015°16'5510.8
2014-Aug-16 08:26N 33°18' E 014°51'12911.3
2014-Aug-15 21:04N 35°14' E 013°44'612.1
2014-Aug-15 20:33N 35°20' E 013°40'1212.5
2014-Aug-15 19:33N 35°31' E 013°34'1312.9
2014-Aug-15 18:33N 35°42' E 013°26'1313.0
2014-Aug-15 17:33N 35°54' E 013°19'1313.0
2014-Aug-15 16:33N 36°05' E 013°12'1312.8
2014-Aug-15 15:33N 36°17' E 013°04'1812.5
2014-Aug-15 14:05N 36°33' E 012°53'712.1
2014-Aug-15 13:30N 36°39' E 012°49'1112.0
2014-Aug-15 12:33N 36°49' E 012°42'1211.9
2014-Aug-15 11:33N 36°59' E 012°34'23910.3
2014-Aug-14 12:16N 40°45' E 014°15'6 0.4
2014-Aug-13 23:13N 40°50' E 014°17'0 0.0
2014-Aug-13 21:13N 40°50' E 014°17'0 0.0
2014-Aug-13 20:31N 40°50' E 014°17'0 0.0
2014-Aug-13 19:31N 40°50' E 014°17'0 0.1
2014-Aug-13 15:20N 40°50' E 014°17'265 9.2
2014-Aug-12 10:32N 43°24' E 009°27'1111.1
2014-Aug-12 09:33N 43°35' E 009°22'1110.9
2014-Aug-12 08:33N 43°44' E 009°15'1111.0
2014-Aug-12 07:33N 43°54' E 009°08'1111.2
2014-Aug-12 06:33N 44°05' E 009°02'1111.3
2014-Aug-12 05:33N 44°15' E 008°57'9 9.2
2014-Aug-12 04:33N 44°24' E 008°53'1 0.5
2014-Aug-12 03:29N 44°24' E 008°53'0 0.0
2014-Aug-12 02:32N 44°24' E 008°53'0 0.0
2014-Aug-12 01:32N 44°24' E 008°53'0 0.0
2014-Aug-12 00:32N 44°24' E 008°53'0 0.0
2014-Aug-11 23:32N 44°24' E 008°53'0 0.0
2014-Aug-11 22:32N 44°24' E 008°53'0 0.0
2014-Aug-11 20:32N 44°24' E 008°53'0 0.0
2014-Aug-11 19:29N 44°24' E 008°53'0 0.0
2014-Aug-11 18:29N 44°24' E 008°53'0 0.0
2014-Aug-11 15:29N 44°24' E 008°53'0 0.0
2014-Aug-11 14:26N 44°24' E 008°53'0 0.0
2014-Aug-11 13:32N 44°24' E 008°53'0 0.0
2014-Aug-11 12:32N 44°24' E 008°53'0 0.0
2014-Aug-11 11:32N 44°24' E 008°53'0 0.0
2014-Aug-11 10:32N 44°24' E 008°53'0 0.0
2014-Aug-11 09:32N 44°24' E 008°53'0 0.0
2014-Aug-11 08:11N 44°24' E 008°53'0 0.0
2014-Aug-11 07:26N 44°24' E 008°53'  

Dump ship's entire track history